Time;durP1;ratioP1;P1;durP2;ratioP2;P2;SDS_P1;SDS_P2;PMS_P1;PMS_P2;Temp;Humidity;BMP_temperature;BMP_pressure;BME280_temperature;BME280_humidity;BME280_pressure;Samples;Min_cycle;Max_cycle;Signal;HPM_P1;HPM_P2
2024/04/09 00:00:49;;;;;;;;;;;;;;;;;;5338002;26;19939;-66
2024/04/09 00:03:17;;;;;;;;;;;;;;;;;;5332094;26;19999;-67
2024/04/09 00:05:43;;;;;;;;;;;;;;;;;;5333296;26;20661;-66
2024/04/09 00:08:10;;;;;;;;;;;;;;;;;;5336183;26;20392;-67
2024/04/09 00:10:36;;;;;;;;;;;;;;;;;;5331139;26;19937;-66
2024/04/09 00:13:04;;;;;;;;;;;;;;;;;;5333655;26;20063;-67
2024/04/09 00:15:29;;;;;;;;;;;;;;;;;;5331735;26;19956;-67
2024/04/09 00:18:11;;;;;;;;;;;;;;;;;;5335795;26;20000;-66
2024/04/09 00:20:39;;;;;;;;;;;;;;;;;;5335653;26;19945;-67
2024/04/09 00:23:05;;;;;;;;;;;;;;;;;;5335281;26;19938;-66
2024/04/09 00:25:31;;;;;;;;;;;;;;;;;;5316857;26;20029;-65
2024/04/09 00:27:56;;;;;;;;;;;;;;;;;;5335797;26;19980;-65
2024/04/09 00:30:24;;;;;;;;;;;;;;;;;;5335343;26;19938;-65
2024/04/09 00:32:51;;;;;;;;;;;;;;;;;;5331781;26;20352;-67
2024/04/09 00:35:21;;;;;;;;;;;;;;;;;;5342436;26;19945;-66
2024/04/09 00:37:51;;;;;;;;;;;;;;;;;;5336820;26;19937;-66
2024/04/09 00:40:20;;;;;;;;;;;;;;;;;;5333884;26;19934;-65
2024/04/09 00:42:49;;;;;;;;;;;;;;;;;;5316944;26;19944;-66
2024/04/09 00:45:16;;;;;;;;;;;;;;;;;;5333272;26;19945;-67
2024/04/09 00:47:43;;;;;;;;;;;;;;;;;;5335115;26;20575;-66
2024/04/09 00:50:11;;;;;;;;;;;;;;;;;;5335148;26;19937;-66
2024/04/09 00:52:41;;;;;;;;;;;;;;;;;;5329686;26;19957;-65
2024/04/09 00:55:09;;;;;;;;;;;;;;;;;;5301796;26;19930;-66
2024/04/09 00:57:34;;;;;;;;;;;;;;;;;;5335288;26;20402;-68
2024/04/09 01:00:05;;;;;;;;;;;;;;;;;;5329867;26;19949;-66
2024/04/09 01:02:31;;;;;;;;;;;;;;;;;;5330887;26;19930;-67
2024/04/09 01:04:56;;;;;;;;;;;;;;;;;;5311373;26;20131;-69
2024/04/09 01:07:22;;;;;;;;;;;;;;;;;;5330005;26;20323;-71
2024/04/09 01:09:50;;;;;;;;;;;;;;;;;;5341329;26;19938;-71
2024/04/09 01:12:17;;;;;;;;;;;;;;;;;;5335118;26;20014;-66
2024/04/09 01:14:43;;;;;;;;;;;;;;;;;;5334168;26;19937;-66
2024/04/09 01:17:08;;;;;;;;;;;;;;;;;;5333123;26;19948;-65
2024/04/09 01:19:34;;;;;;;;;;;;;;;;;;5332441;26;19938;-65
2024/04/09 01:22:00;;;;;;;;;;;;;;;;;;5331861;26;19930;-65
2024/04/09 01:24:25;;;;;;;;;;;;;;;;;;5334459;26;22197;-64
2024/04/09 01:26:51;;;;;;;;;;;;;;;;;;5331340;26;19937;-65
2024/04/09 01:29:17;;;;;;;;;;;;;;;;;;5334177;26;19937;-66
2024/04/09 01:31:43;;;;;;;;;;;;;;;;;;5336753;26;20250;-66
2024/04/09 01:34:09;;;;;;;;;;;;;;;;;;5322746;26;19997;-66
2024/04/09 01:36:35;;;;;;;;;;;;;;;;;;5334015;26;20246;-65
2024/04/09 01:39:00;;;;;;;;;;;;;;;;;;5335012;26;20756;-66
2024/04/09 01:41:26;;;;;;;;;;;;;;;;;;5333787;26;19930;-66
2024/04/09 01:43:52;;;;;;;;;;;;;;;;;;5330398;26;19938;-66
2024/04/09 01:46:18;;;;;;;;;;;;;;;;;;5334235;26;20279;-65
2024/04/09 01:48:43;;;;;;;;;;;;;;;;;;5331451;26;20364;-67
2024/04/09 01:51:08;;;;;;;;;;;;;;;;;;5344486;26;19948;-67
2024/04/09 01:53:34;;;;;;;;;;;;;;;;;;5328007;26;19977;-67
2024/04/09 01:55:59;;;;;;;;;;;;;;;;;;5336582;26;20021;-66
2024/04/09 01:58:25;;;;;;;;;;;;;;;;;;5330487;26;19930;-67
2024/04/09 02:00:50;;;;;;;;;;;;;;;;;;5329363;26;19961;-67
2024/04/09 02:03:15;;;;;;;;;;;;;;;;;;5331515;26;19962;-67
2024/04/09 02:05:41;;;;;;;;;;;;;;;;;;5332208;26;19941;-67
2024/04/09 02:08:06;;;;;;;;;;;;;;;;;;5333654;26;20250;-67
2024/04/09 02:10:35;;;;;;;;;;;;;;;;;;5342096;26;20159;-66
2024/04/09 02:13:00;;;;;;;;;;;;;;;;;;5332854;26;19945;-68
2024/04/09 02:15:25;;;;;;;;;;;;;;;;;;5301101;26;20518;-67
2024/04/09 02:17:51;;;;;;;;;;;;;;;;;;5338732;26;19930;-67
2024/04/09 02:20:17;;;;;;;;;;;;;;;;;;5333060;26;19938;-67
2024/04/09 02:22:43;;;;;;;;;;;;;;;;;;5335064;26;19937;-67
2024/04/09 02:25:11;;;;;;;;;;;;;;;;;;5311126;26;19965;-67
2024/04/09 02:27:39;;;;;;;;;;;;;;;;;;5303108;26;21045;-66
2024/04/09 02:30:09;;;;;;;;;;;;;;;;;;5330425;26;19937;-67
2024/04/09 02:32:34;;;;;;;;;;;;;;;;;;5336659;26;19996;-66
2024/04/09 02:35:01;;;;;;;;;;;;;;;;;;5331579;26;19937;-67
2024/04/09 02:37:28;;;;;;;;;;;;;;;;;;5329414;26;20526;-66
2024/04/09 02:39:56;;;;;;;;;;;;;;;;;;5323794;26;20324;-66
2024/04/09 02:42:23;;;;;;;;;;;;;;;;;;5327709;26;19937;-66
2024/04/09 02:44:48;;;;;;;;;;;;;;;;;;5329712;26;19945;-66
2024/04/09 02:47:16;;;;;;;;;;;;;;;;;;5330248;26;19974;-67
2024/04/09 02:49:43;;;;;;;;;;;;;;;;;;5312425;26;19946;-68
2024/04/09 02:52:11;;;;;;;;;;;;;;;;;;5301248;26;19930;-66
2024/04/09 02:54:39;;;;;;;;;;;;;;;;;;5333943;26;19949;-67
2024/04/09 02:57:04;;;;;;;;;;;;;;;;;;5332143;26;19936;-67
2024/04/09 02:59:32;;;;;;;;;;;;;;;;;;5332938;26;19930;-68
2024/04/09 03:02:00;;;;;;;;;;;;;;;;;;5359142;26;20078;-68
2024/04/09 03:04:25;;;;;;;;;;;;;;;;;;5312404;26;20305;-68
2024/04/09 03:06:51;;;;;;;;;;;;;;;;;;5335835;26;19937;-68
2024/04/09 03:09:19;;;;;;;;;;;;;;;;;;5335583;26;20526;-68
2024/04/09 03:11:44;;;;;;;;;;;;;;;;;;5333220;26;20504;-68
2024/04/09 03:14:11;;;;;;;;;;;;;;;;;;5335250;26;19934;-67
2024/04/09 03:16:36;;;;;;;;;;;;;;;;;;5332211;26;19933;-68
2024/04/09 03:19:03;;;;;;;;;;;;;;;;;;5331385;26;19930;-68
2024/04/09 03:21:29;;;;;;;;;;;;;;;;;;5333486;26;20463;-67
2024/04/09 03:23:54;;;;;;;;;;;;;;;;;;5335169;26;19988;-68
2024/04/09 03:26:23;;;;;;;;;;;;;;;;;;5343859;26;19929;-69
2024/04/09 03:28:48;;;;;;;;;;;;;;;;;;5302621;26;19945;-67
2024/04/09 03:31:13;;;;;;;;;;;;;;;;;;5336629;26;19941;-67
2024/04/09 03:33:41;;;;;;;;;;;;;;;;;;5332631;26;19938;-67
2024/04/09 03:36:08;;;;;;;;;;;;;;;;;;5335810;26;19937;-68
2024/04/09 03:38:35;;;;;;;;;;;;;;;;;;5327444;26;19945;-68
2024/04/09 03:41:03;;;;;;;;;;;;;;;;;;5335065;26;19937;-68
2024/04/09 03:43:29;;;;;;;;;;;;;;;;;;5337427;26;19945;-68
2024/04/09 03:45:54;;;;;;;;;;;;;;;;;;5335953;26;20399;-67
2024/04/09 03:48:19;;;;;;;;;;;;;;;;;;5332306;26;19984;-68
2024/04/09 03:50:45;;;;;;;;;;;;;;;;;;5339875;26;19980;-69
2024/04/09 03:53:10;;;;;;;;;;;;;;;;;;5335167;26;19930;-68
2024/04/09 03:55:38;;;;;;;;;;;;;;;;;;5332474;26;20037;-68
2024/04/09 03:58:03;;;;;;;;;;;;;;;;;;5342635;26;20083;-68
2024/04/09 04:00:30;;;;;;;;;;;;;;;;;;5337435;26;20324;-68
2024/04/09 04:02:58;;;;;;;;;;;;;;;;;;5336749;26;20687;-68
2024/04/09 04:05:25;;;;;;;;;;;;;;;;;;5306796;26;20314;-68
2024/04/09 04:07:50;;;;;;;;;;;;;;;;;;5333941;26;19942;-68
2024/04/09 04:10:15;;;;;;;;;;;;;;;;;;5356069;26;19945;-68
2024/04/09 04:12:41;;;;;;;;;;;;;;;;;;5337998;26;19938;-68
2024/04/09 04:15:06;;;;;;;;;;;;;;;;;;5336787;26;19938;-68
2024/04/09 04:17:31;;;;;;;;;;;;;;;;;;5345476;26;19937;-68
2024/04/09 04:19:59;;;;;;;;;;;;;;;;;;5335426;26;19930;-68
2024/04/09 04:22:24;;;;;;;;;;;;;;;;;;5335401;26;19981;-68
2024/04/09 04:24:49;;;;;;;;;;;;;;;;;;5337485;26;19930;-69
2024/04/09 04:27:15;;;;;;;;;;;;;;;;;;5332346;26;19945;-69
2024/04/09 04:29:43;;;;;;;;;;;;;;;;;;5314603;26;19930;-70
2024/04/09 04:32:11;;;;;;;;;;;;;;;;;;5337095;26;19942;-69
2024/04/09 04:34:36;;;;;;;;;;;;;;;;;;5333628;26;20082;-71
2024/04/09 04:37:02;;;;;;;;;;;;;;;;;;5334695;26;19941;-71
2024/04/09 04:39:28;;;;;;;;;;;;;;;;;;5331084;26;19930;-71
2024/04/09 04:41:58;;;;;;;;;;;;;;;;;;5333732;26;21082;-70
2024/04/09 04:44:24;;;;;;;;;;;;;;;;;;5304355;26;19937;-71
2024/04/09 04:46:49;;;;;;;;;;;;;;;;;;5314092;26;19933;-71
2024/04/09 04:49:17;;;;;;;;;;;;;;;;;;5336025;26;19933;-73
2024/04/09 04:51:42;;;;;;;;;;;;;;;;;;5337470;26;20505;-71
2024/04/09 04:54:08;;;;;;;;;;;;;;;;;;5334569;26;19934;-69
2024/04/09 04:56:36;;;;;;;;;;;;;;;;;;5332835;26;20361;-70
2024/04/09 04:59:04;;;;;;;;;;;;;;;;;;5336381;26;19960;-69
2024/04/09 05:01:29;;;;;;;;;;;;;;;;;;5332596;26;20467;-70
2024/04/09 05:03:54;;;;;;;;;;;;;;;;;;5344649;26;20995;-70
2024/04/09 05:06:20;;;;;;;;;;;;;;;;;;5333410;26;19938;-71
2024/04/09 05:08:48;;;;;;;;;;;;;;;;;;5332209;26;19929;-69
2024/04/09 05:11:13;;;;;;;;;;;;;;;;;;5334840;26;19937;-68
2024/04/09 05:13:39;;;;;;;;;;;;;;;;;;5333787;26;19944;-69
2024/04/09 05:16:04;;;;;;;;;;;;;;;;;;5315202;26;20283;-68
2024/04/09 05:18:32;;;;;;;;;;;;;;;;;;5331691;26;19930;-68
2024/04/09 05:20:57;;;;;;;;;;;;;;;;;;5339660;26;19945;-69
2024/04/09 05:23:28;;;;;;;;;;;;;;;;;;5334668;26;19930;-70
2024/04/09 05:25:53;;;;;;;;;;;;;;;;;;5331253;26;19945;-68
2024/04/09 05:28:18;;;;;;;;;;;;;;;;;;5338791;26;19930;-67
2024/04/09 05:30:49;;;;;;;;;;;;;;;;;;5335677;26;20268;-68
2024/04/09 05:33:16;;;;;;;;;;;;;;;;;;5360620;26;19930;-68
2024/04/09 05:35:41;;;;;;;;;;;;;;;;;;5334848;26;19937;-67
2024/04/09 05:38:10;;;;;;;;;;;;;;;;;;5335678;26;19949;-67
2024/04/09 05:40:35;;;;;;;;;;;;;;;;;;5313828;26;19929;-67
2024/04/09 05:43:03;;;;;;;;;;;;;;;;;;5305867;26;22135;-68
2024/04/09 05:45:34;;;;;;;;;;;;;;;;;;5344933;26;19949;-68
2024/04/09 05:48:05;;;;;;;;;;;;;;;;;;5332574;26;19957;-64
2024/04/09 05:50:33;;;;;;;;;;;;;;;;;;5331752;26;19938;-65
2024/04/09 05:52:58;;;;;;;;;;;;;;;;;;5333484;26;20354;-65
2024/04/09 05:55:26;;;;;;;;;;;;;;;;;;5319166;26;20288;-65
2024/04/09 05:57:51;;;;;;;;;;;;;;;;;;5317628;26;20045;-65
2024/04/09 06:00:20;;;;;;;;;;;;;;;;;;5343820;26;19945;-66
2024/04/09 06:02:45;;;;;;;;;;;;;;;;;;5311568;26;19929;-64
2024/04/09 06:05:16;;;;;;;;;;;;;;;;;;5332123;26;20270;-67
2024/04/09 06:07:41;;;;;;;;;;;;;;;;;;5333996;26;20293;-65
2024/04/09 06:10:06;;;;;;;;;;;;;;;;;;5333606;26;19938;-64
2024/04/09 06:12:34;;;;;;;;;;;;;;;;;;5334191;26;19937;-65
2024/04/09 06:15:05;;;;;;;;;;;;;;;;;;5311815;26;19938;-63
2024/04/09 06:17:30;;;;;;;;;;;;;;;;;;5336035;26;19938;-64
2024/04/09 06:19:57;;;;;;;;;;;;;;;;;;5332454;26;20733;-64
2024/04/09 06:22:22;;;;;;;;;;;;;;;;;;5304117;26;19929;-67
2024/04/09 06:24:51;;;;;;;;;;;;;;;;;;5333381;26;19940;-65
2024/04/09 06:27:16;;;;;;;;;;;;;;;;;;5335325;26;20094;-66
2024/04/09 06:29:41;;;;;;;;;;;;;;;;;;5335422;26;20613;-65
2024/04/09 06:32:09;;;;;;;;;;;;;;;;;;5340322;26;20438;-64
2024/04/09 06:34:37;;;;;;;;;;;;;;;;;;5315928;26;19967;-64
2024/04/09 06:37:02;;;;;;;;;;;;;;;;;;5344460;26;20280;-65
2024/04/09 06:39:29;;;;;;;;;;;;;;;;;;5333941;26;19929;-64
2024/04/09 06:41:55;;;;;;;;;;;;;;;;;;5336253;26;20357;-65
2024/04/09 06:44:21;;;;;;;;;;;;;;;;;;5319417;26;19942;-67
2024/04/09 06:46:46;;;;;;;;;;;;;;;;;;5332061;26;19942;-66
2024/04/09 06:49:11;;;;;;;;;;;;;;;;;;5335173;26;19938;-66
2024/04/09 06:51:36;;;;;;;;;;;;;;;;;;5336919;26;19937;-67
2024/04/09 06:54:05;;;;;;;;;;;;;;;;;;5347106;26;19929;-67
2024/04/09 06:56:30;;;;;;;;;;;;;;;;;;5337452;26;19940;-67
2024/04/09 06:58:58;;;;;;;;;;;;;;;;;;5330916;26;19942;-67
2024/04/09 07:01:26;;;;;;;;;;;;;;;;;;5339247;26;20052;-66
2024/04/09 07:03:51;;;;;;;;;;;;;;;;;;5332644;26;19936;-68
2024/04/09 07:06:19;;;;;;;;;;;;;;;;;;5339525;26;19937;-69
2024/04/09 07:08:45;;;;;;;;;;;;;;;;;;5335914;26;19930;-69
2024/04/09 07:11:10;;;;;;;;;;;;;;;;;;5336287;26;19930;-67
2024/04/09 07:13:38;;;;;;;;;;;;;;;;;;5339661;26;19929;-67
2024/04/09 07:16:06;;;;;;;;;;;;;;;;;;5344842;26;19938;-68
2024/04/09 07:18:31;;;;;;;;;;;;;;;;;;5312410;26;19949;-67
2024/04/09 07:20:59;;;;;;;;;;;;;;;;;;5338465;26;20341;-69
2024/04/09 07:23:30;;;;;;;;;;;;;;;;;;5338775;26;19944;-68
2024/04/09 07:25:57;;;;;;;;;;;;;;;;;;5338880;26;19938;-68
2024/04/09 07:28:23;;;;;;;;;;;;;;;;;;5316912;26;19945;-68
2024/04/09 07:30:48;;;;;;;;;;;;;;;;;;5338483;26;20271;-68
2024/04/09 07:33:15;;;;;;;;;;;;;;;;;;5337126;26;19942;-70
2024/04/09 07:35:40;;;;;;;;;;;;;;;;;;5335825;26;19938;-68
2024/04/09 07:38:05;;;;;;;;;;;;;;;;;;5336884;26;20028;-69
2024/04/09 07:40:30;;;;;;;;;;;;;;;;;;5333760;26;19933;-68
2024/04/09 07:42:58;;;;;;;;;;;;;;;;;;5335872;26;19944;-68
2024/04/09 07:45:23;;;;;;;;;;;;;;;;;;5361098;26;20307;-67
2024/04/09 07:47:51;;;;;;;;;;;;;;;;;;5336495;26;19937;-68
2024/04/09 07:50:19;;;;;;;;;;;;;;;;;;5334410;26;20314;-68
2024/04/09 07:52:44;;;;;;;;;;;;;;;;;;5334511;26;19937;-68
2024/04/09 07:55:10;;;;;;;;;;;;;;;;;;5363170;26;22195;-69
2024/04/09 07:57:45;;;;;;;;;;;;;;;;;;5316082;26;19933;-68
2024/04/09 08:00:19;;;;;;;;;;;;;;;;;;5332105;26;19944;-67
2024/04/09 08:02:50;;;;;;;;;;;;;;;;;;5339984;26;20500;-67
2024/04/09 08:05:16;;;;;;;;;;;;;;;;;;5333287;26;20261;-68
2024/04/09 08:07:42;;;;;;;;;;;;;;;;;;5336186;26;20622;-68
2024/04/09 08:10:16;;;;;;;;;;;;;;;;;;5307094;26;19938;-68
2024/04/09 08:12:41;;;;;;;;;;;;;;;;;;5336073;26;19936;-68
2024/04/09 08:15:09;;;;;;;;;;;;;;;;;;5338335;26;19933;-69
2024/04/09 08:17:35;;;;;;;;;;;;;;;;;;5335459;26;19940;-69
2024/04/09 08:20:10;;;;;;;;;;;;;;;;;;5332086;26;19938;-67
2024/04/09 08:22:35;;;;;;;;;;;;;;;;;;5304613;26;20354;-68
2024/04/09 08:25:07;;;;;;;;;;;;;;;;;;5335812;26;19954;-68
2024/04/09 08:27:36;;;;;;;;;;;;;;;;;;5336681;26;19954;-68
2024/04/09 08:30:03;;;;;;;;;;;;;;;;;;5305137;26;20040;-68
2024/04/09 08:32:29;;;;;;;;;;;;;;;;;;5333287;26;19944;-69
2024/04/09 08:34:54;;;;;;;;;;;;;;;;;;5337046;26;21951;-69
2024/04/09 08:37:22;;;;;;;;;;;;;;;;;;5333423;26;20375;-69
2024/04/09 08:39:48;;;;;;;;;;;;;;;;;;5338812;26;19931;-69
2024/04/09 08:42:15;;;;;;;;;;;;;;;;;;5330302;26;19934;-67
2024/04/09 08:44:41;;;;;;;;;;;;;;;;;;5313285;26;20412;-68
2024/04/09 08:47:09;;;;;;;;;;;;;;;;;;5334976;26;19937;-69
2024/04/09 08:49:37;;;;;;;;;;;;;;;;;;5331405;26;20045;-67
2024/04/09 08:52:02;;;;;;;;;;;;;;;;;;5362077;26;19930;-68
2024/04/09 08:54:28;;;;;;;;;;;;;;;;;;5334420;26;20556;-69
2024/04/09 08:56:56;;;;;;;;;;;;;;;;;;5336858;26;19930;-68
2024/04/09 08:59:22;;;;;;;;;;;;;;;;;;5332169;26;19937;-70
2024/04/09 09:01:47;;;;;;;;;;;;;;;;;;5334831;26;20373;-71
2024/04/09 09:04:13;;;;;;;;;;;;;;;;;;5333550;26;20448;-69
2024/04/09 09:06:38;;;;;;;;;;;;;;;;;;5336626;26;19942;-68
2024/04/09 09:09:04;;;;;;;;;;;;;;;;;;5344712;26;20041;-69
2024/04/09 09:11:30;;;;;;;;;;;;;;;;;;5333539;26;19945;-68
2024/04/09 09:13:57;;;;;;;;;;;;;;;;;;5334380;26;20442;-69
2024/04/09 09:16:25;;;;;;;;;;;;;;;;;;5336189;26;19937;-69
2024/04/09 09:18:51;;;;;;;;;;;;;;;;;;5332655;26;19929;-72
2024/04/09 09:21:17;;;;;;;;;;;;;;;;;;5336784;26;20032;-69
2024/04/09 09:23:45;;;;;;;;;;;;;;;;;;5312775;26;20344;-72
2024/04/09 09:26:10;;;;;;;;;;;;;;;;;;5334309;26;19937;-73
2024/04/09 09:28:38;;;;;;;;;;;;;;;;;;5333034;26;19938;-70
2024/04/09 09:31:06;;;;;;;;;;;;;;;;;;5335902;26;20356;-69
2024/04/09 09:33:31;;;;;;;;;;;;;;;;;;5330549;26;19948;-70
2024/04/09 09:35:57;;;;;;;;;;;;;;;;;;5335574;26;19945;-68
2024/04/09 09:38:22;;;;;;;;;;;;;;;;;;5334601;26;19930;-70
2024/04/09 09:40:50;;;;;;;;;;;;;;;;;;5335189;26;20641;-73
2024/04/09 09:43:16;;;;;;;;;;;;;;;;;;5332746;26;19948;-72
2024/04/09 09:45:41;;;;;;;;;;;;;;;;;;5337013;26;19930;-69
2024/04/09 09:48:10;;;;;;;;;;;;;;;;;;5336011;26;19944;-71
2024/04/09 09:50:38;;;;;;;;;;;;;;;;;;5335543;26;19965;-70
2024/04/09 09:53:03;;;;;;;;;;;;;;;;;;5331312;26;20013;-71
2024/04/09 09:55:29;;;;;;;;;;;;;;;;;;5330926;26;20823;-72
2024/04/09 09:57:54;;;;;;;;;;;;;;;;;;5313453;26;19938;-77
2024/04/09 10:00:22;;;;;;;;;;;;;;;;;;5333861;26;19969;-75
2024/04/09 10:02:50;;;;;;;;;;;;;;;;;;5331603;26;19930;-72
2024/04/09 10:05:15;;;;;;;;;;;;;;;;;;5334647;26;19938;-71
2024/04/09 10:07:41;;;;;;;;;;;;;;;;;;5314498;26;20302;-70
2024/04/09 10:10:06;;;;;;;;;;;;;;;;;;5332528;26;20346;-69
2024/04/09 10:12:31;;;;;;;;;;;;;;;;;;5341663;26;19930;-69
2024/04/09 10:14:59;;;;;;;;;;;;;;;;;;5364380;26;19930;-71
2024/04/09 10:17:25;;;;;;;;;;;;;;;;;;5333740;26;19945;-73
2024/04/09 10:19:50;;;;;;;;;;;;;;;;;;5338673;26;19929;-74
2024/04/09 10:22:15;;;;;;;;;;;;;;;;;;5337383;26;20461;-71
2024/04/09 10:24:40;;;;;;;;;;;;;;;;;;5333600;26;19929;-69
2024/04/09 10:27:06;;;;;;;;;;;;;;;;;;5338089;26;20661;-73
2024/04/09 10:29:31;;;;;;;;;;;;;;;;;;5335636;26;19942;-70
2024/04/09 10:31:57;;;;;;;;;;;;;;;;;;5339776;26;19930;-72
2024/04/09 10:34:26;;;;;;;;;;;;;;;;;;5332937;26;20003;-70
2024/04/09 10:36:51;;;;;;;;;;;;;;;;;;5344462;26;20284;-70
2024/04/09 10:39:17;;;;;;;;;;;;;;;;;;5330723;26;20011;-72
2024/04/09 10:41:44;;;;;;;;;;;;;;;;;;5344848;26;19960;-68
2024/04/09 10:44:10;;;;;;;;;;;;;;;;;;5346650;26;19958;-71
2024/04/09 10:46:37;;;;;;;;;;;;;;;;;;5347816;26;19945;-67
2024/04/09 10:49:03;;;;;;;;;;;;;;;;;;5334253;26;19938;-70
2024/04/09 10:51:31;;;;;;;;;;;;;;;;;;5320752;26;19936;-73
2024/04/09 10:53:56;;;;;;;;;;;;;;;;;;5334295;26;19930;-69
2024/04/09 10:56:21;;;;;;;;;;;;;;;;;;5335921;26;19974;-70
2024/04/09 10:58:47;;;;;;;;;;;;;;;;;;5336773;26;20371;-72
2024/04/09 11:01:14;;;;;;;;;;;;;;;;;;5338634;26;20577;-70
2024/04/09 11:03:39;;;;;;;;;;;;;;;;;;5336619;26;19930;-70
2024/04/09 11:06:04;;;;;;;;;;;;;;;;;;5337871;26;19980;-72
2024/04/09 11:08:30;;;;;;;;;;;;;;;;;;5304109;26;19997;-70
2024/04/09 11:10:55;;;;;;;;;;;;;;;;;;5312882;26;19930;-72
2024/04/09 11:13:23;;;;;;;;;;;;;;;;;;5347067;26;19930;-74
2024/04/09 11:15:48;;;;;;;;;;;;;;;;;;5345575;26;20484;-70
2024/04/09 11:18:23;;;;;;;;;;;;;;;;;;5335754;26;19937;-70
2024/04/09 11:20:48;;;;;;;;;;;;;;;;;;5334737;26;20273;-70
2024/04/09 11:23:14;;;;;;;;;;;;;;;;;;5347445;26;19930;-71
2024/04/09 11:25:42;;;;;;;;;;;;;;;;;;5337660;26;19937;-70
2024/04/09 11:28:08;;;;;;;;;;;;;;;;;;5308772;26;19937;-73
2024/04/09 11:30:33;;;;;;;;;;;;;;;;;;5335938;26;20481;-69
2024/04/09 11:32:58;;;;;;;;;;;;;;;;;;5349083;26;19977;-69
2024/04/09 11:35:24;;;;;;;;;;;;;;;;;;5337629;26;20346;-72
2024/04/09 11:37:51;;;;;;;;;;;;;;;;;;5336498;26;19941;-73
2024/04/09 11:40:17;;;;;;;;;;;;;;;;;;5331469;26;20305;-70
2024/04/09 11:42:42;;;;;;;;;;;;;;;;;;5336456;26;20016;-68
2024/04/09 11:45:07;;;;;;;;;;;;;;;;;;5334675;26;20954;-70
2024/04/09 11:47:32;;;;;;;;;;;;;;;;;;5332237;26;20381;-73
2024/04/09 11:50:00;;;;;;;;;;;;;;;;;;5335009;26;19945;-70
2024/04/09 11:52:26;;;;;;;;;;;;;;;;;;5335267;26;19937;-71
2024/04/09 11:54:55;;;;;;;;;;;;;;;;;;5337448;26;20383;-71
2024/04/09 11:57:22;;;;;;;;;;;;;;;;;;5335062;26;19938;-73
2024/04/09 11:59:53;;;;;;;;;;;;;;;;;;5336155;26;19937;-71
2024/04/09 12:02:20;;;;;;;;;;;;;;;;;;5333557;26;19946;-75
2024/04/09 12:04:48;;;;;;;;;;;;;;;;;;5309155;26;19930;-72
2024/04/09 12:07:19;;;;;;;;;;;;;;;;;;5331066;26;20432;-71
2024/04/09 12:09:44;;;;;;;;;;;;;;;;;;5345005;26;19938;-70
2024/04/09 12:12:12;;;;;;;;;;;;;;;;;;5338543;26;19941;-69
2024/04/09 12:14:37;;;;;;;;;;;;;;;;;;5364421;26;20369;-71
2024/04/09 12:17:02;;;;;;;;;;;;;;;;;;5307956;26;19937;-69
2024/04/09 12:19:27;;;;;;;;;;;;;;;;;;5317858;26;19930;-70
2024/04/09 12:21:55;;;;;;;;;;;;;;;;;;5344469;26;19938;-72
2024/04/09 12:24:23;;;;;;;;;;;;;;;;;;5335981;26;19982;-72
2024/04/09 12:26:48;;;;;;;;;;;;;;;;;;5335782;26;19938;-73
2024/04/09 12:29:14;;;;;;;;;;;;;;;;;;5314767;26;20714;-69
2024/04/09 12:31:44;;;;;;;;;;;;;;;;;;5336057;26;19937;-71
2024/04/09 12:34:09;;;;;;;;;;;;;;;;;;5329786;26;19937;-70
2024/04/09 12:36:38;;;;;;;;;;;;;;;;;;5312790;26;19930;-69
2024/04/09 12:39:08;;;;;;;;;;;;;;;;;;5331603;26;19942;-70
2024/04/09 12:41:34;;;;;;;;;;;;;;;;;;5332355;26;19937;-69
2024/04/09 12:44:01;;;;;;;;;;;;;;;;;;5334286;26;20715;-69
2024/04/09 12:46:27;;;;;;;;;;;;;;;;;;5335991;26;19937;-72
2024/04/09 12:48:54;;;;;;;;;;;;;;;;;;5331917;26;20419;-71
2024/04/09 12:51:22;;;;;;;;;;;;;;;;;;5336255;26;19934;-68
2024/04/09 12:53:47;;;;;;;;;;;;;;;;;;5338703;26;19993;-68
2024/04/09 12:56:12;;;;;;;;;;;;;;;;;;5333773;26;19940;-69
2024/04/09 12:58:38;;;;;;;;;;;;;;;;;;5334876;26;20026;-69
2024/04/09 13:01:03;;;;;;;;;;;;;;;;;;5334844;26;19933;-70
2024/04/09 13:03:31;;;;;;;;;;;;;;;;;;5304035;26;20008;-69
2024/04/09 13:05:56;;;;;;;;;;;;;;;;;;5337292;26;20374;-69
2024/04/09 13:08:25;;;;;;;;;;;;;;;;;;5335336;26;20079;-73
2024/04/09 13:10:53;;;;;;;;;;;;;;;;;;5311184;26;20354;-68
2024/04/09 13:13:21;;;;;;;;;;;;;;;;;;5333691;26;19938;-68
2024/04/09 13:15:49;;;;;;;;;;;;;;;;;;5331938;26;20350;-69
2024/04/09 13:18:15;;;;;;;;;;;;;;;;;;5333228;26;19971;-70
2024/04/09 13:20:40;;;;;;;;;;;;;;;;;;5334075;26;19937;-66
2024/04/09 13:23:05;;;;;;;;;;;;;;;;;;5346775;26;19977;-67
2024/04/09 13:25:33;;;;;;;;;;;;;;;;;;5327404;26;20348;-67
2024/04/09 13:27:58;;;;;;;;;;;;;;;;;;5346081;26;19943;-71
2024/04/09 13:30:25;;;;;;;;;;;;;;;;;;5335384;26;20348;-69
2024/04/09 13:32:53;;;;;;;;;;;;;;;;;;5313357;26;19945;-69
2024/04/09 13:35:21;;;;;;;;;;;;;;;;;;5331473;26;19938;-72
2024/04/09 13:37:47;;;;;;;;;;;;;;;;;;5331682;26;20015;-70
2024/04/09 13:40:12;;;;;;;;;;;;;;;;;;5339379;26;19937;-74
2024/04/09 13:42:38;;;;;;;;;;;;;;;;;;5312231;26;19945;-69
2024/04/09 13:45:09;;;;;;;;;;;;;;;;;;5362605;26;19938;-66
2024/04/09 13:47:37;;;;;;;;;;;;;;;;;;5331400;26;19930;-70
2024/04/09 13:50:05;;;;;;;;;;;;;;;;;;5302357;26;20238;-69
2024/04/09 13:52:33;;;;;;;;;;;;;;;;;;5333083;26;20305;-66
2024/04/09 13:55:01;;;;;;;;;;;;;;;;;;5335524;26;19929;-69
2024/04/09 13:57:29;;;;;;;;;;;;;;;;;;5330856;26;20636;-72
2024/04/09 13:59:54;;;;;;;;;;;;;;;;;;5331101;26;20701;-72
2024/04/09 14:02:20;;;;;;;;;;;;;;;;;;5331207;26;19930;-70
2024/04/09 14:04:46;;;;;;;;;;;;;;;;;;5331933;26;19959;-68
2024/04/09 14:07:15;;;;;;;;;;;;;;;;;;5331918;26;20020;-70
2024/04/09 14:09:40;;;;;;;;;;;;;;;;;;5314183;26;20426;-70
2024/04/09 14:12:05;;;;;;;;;;;;;;;;;;5336466;26;19950;-71
2024/04/09 14:14:32;;;;;;;;;;;;;;;;;;5335171;26;19942;-69
2024/04/09 14:16:59;;;;;;;;;;;;;;;;;;5334210;26;19930;-71
2024/04/09 14:19:27;;;;;;;;;;;;;;;;;;5315165;26;20361;-68
2024/04/09 14:21:55;;;;;;;;;;;;;;;;;;5335585;26;21055;-68
2024/04/09 14:24:20;;;;;;;;;;;;;;;;;;5336723;26;19930;-68
2024/04/09 14:26:46;;;;;;;;;;;;;;;;;;5333333;26;19941;-68
2024/04/09 14:29:15;;;;;;;;;;;;;;;;;;5331778;26;20412;-67
2024/04/09 14:31:41;;;;;;;;;;;;;;;;;;5334689;26;19942;-68
2024/04/09 14:34:06;;;;;;;;;;;;;;;;;;5331800;26;20293;-68
2024/04/09 14:36:34;;;;;;;;;;;;;;;;;;5331684;26;19987;-69
2024/04/09 14:38:59;;;;;;;;;;;;;;;;;;5331829;26;19952;-69
2024/04/09 14:41:27;;;;;;;;;;;;;;;;;;5344550;26;19938;-70
2024/04/09 14:43:55;;;;;;;;;;;;;;;;;;5332890;26;19942;-70
2024/04/09 14:46:23;;;;;;;;;;;;;;;;;;5332441;26;19940;-67
2024/04/09 14:48:51;;;;;;;;;;;;;;;;;;5330925;26;20792;-68
2024/04/09 14:51:17;;;;;;;;;;;;;;;;;;5333052;26;19949;-69
2024/04/09 14:53:42;;;;;;;;;;;;;;;;;;5332497;26;19933;-70
2024/04/09 14:56:10;;;;;;;;;;;;;;;;;;5335242;26;19930;-68
2024/04/09 14:58:38;;;;;;;;;;;;;;;;;;5336888;26;19937;-68
2024/04/09 15:01:06;;;;;;;;;;;;;;;;;;5334256;26;20411;-68
2024/04/09 15:03:31;;;;;;;;;;;;;;;;;;5330984;26;19950;-69
2024/04/09 15:05:56;;;;;;;;;;;;;;;;;;5335634;26;19930;-69
2024/04/09 15:08:24;;;;;;;;;;;;;;;;;;5338552;26;20177;-69
2024/04/09 15:10:54;;;;;;;;;;;;;;;;;;5304108;26;20167;-68
2024/04/09 15:13:19;;;;;;;;;;;;;;;;;;5338309;26;19937;-69
2024/04/09 15:15:47;;;;;;;;;;;;;;;;;;5342541;26;19938;-69
2024/04/09 15:18:12;;;;;;;;;;;;;;;;;;5336506;26;19944;-71
2024/04/09 15:20:37;;;;;;;;;;;;;;;;;;5335188;26;19999;-69
2024/04/09 15:23:02;;;;;;;;;;;;;;;;;;5336979;26;19937;-69
2024/04/09 15:25:28;;;;;;;;;;;;;;;;;;5332213;26;19939;-68
2024/04/09 15:28:38;;;;;;;;;;;;;;;;;;5332889;26;19937;-72
2024/04/09 15:30:47;;;;;;;;;;;;;;;;;;5324271;26;20415;-69
2024/04/09 15:33:15;;;;;;;;;;;;;;;;;;5310873;26;20118;-78
2024/04/09 15:35:40;;;;;;;;;;;;;;;;;;5334535;26;19929;-71
2024/04/09 15:38:05;;;;;;;;;;;;;;;;;;5329467;26;19952;-72
2024/04/09 15:40:34;;;;;;;;;;;;;;;;;;5336188;26;19944;-67
2024/04/09 15:43:12;;;;;;;;;;;;;;;;;;5339707;26;19938;-69
2024/04/09 15:46:06;;;;;;;;;;;;;;;;;;5332199;26;20166;-68
2024/04/09 15:48:34;;;;;;;;;;;;;;;;;;5300376;26;20328;-69
2024/04/09 15:50:59;;;;;;;;;;;;;;;;;;5337266;26;19944;-69
2024/04/09 15:53:26;;;;;;;;;;;;;;;;;;5331489;26;20199;-67
2024/04/09 15:55:51;;;;;;;;;;;;;;;;;;5337492;26;19941;-74
2024/04/09 16:01:34;;;;;;;;;;;;;;;;;;5268562;26;19960;-73
2024/04/09 16:04:00;;;;;;;;;;;;;;;;;;5341041;26;21002;-72
2024/04/09 16:06:29;;;;;;;;;;;;;;;;;;5333448;26;19934;-72
2024/04/09 16:08:57;;;;;;;;;;;;;;;;;;5334810;26;20368;-70
2024/04/09 16:11:27;;;;;;;;;;;;;;;;;;5335211;26;19942;-68
2024/04/09 16:13:55;;;;;;;;;;;;;;;;;;5336259;26;20036;-69
2024/04/09 16:16:23;;;;;;;;;;;;;;;;;;5359356;26;19942;-68
2024/04/09 16:18:50;;;;;;;;;;;;;;;;;;5330424;26;20053;-69
2024/04/09 16:21:21;;;;;;;;;;;;;;;;;;5315352;26;20250;-68
2024/04/09 16:23:48;;;;;;;;;;;;;;;;;;5337070;26;19938;-72
2024/04/09 16:26:17;;;;;;;;;;;;;;;;;;5332880;26;19941;-74
2024/04/09 16:28:44;;;;;;;;;;;;;;;;;;5335505;26;19931;-68
2024/04/09 16:31:12;;;;;;;;;;;;;;;;;;5333626;26;19941;-71
2024/04/09 16:33:37;;;;;;;;;;;;;;;;;;5329409;26;20312;-71
2024/04/09 16:36:06;;;;;;;;;;;;;;;;;;5333010;26;20196;-69
2024/04/09 16:38:32;;;;;;;;;;;;;;;;;;5330849;26;19962;-69
2024/04/09 16:40:58;;;;;;;;;;;;;;;;;;5335212;26;19930;-70
2024/04/09 16:43:28;;;;;;;;;;;;;;;;;;5311764;26;20751;-71
2024/04/09 16:45:54;;;;;;;;;;;;;;;;;;5328879;26;20349;-68